sensor_id;sensor_type;location;lat;lon;timestamp;P1;durP1;ratioP1;P2;durP2;ratioP2
34505;SDS011;20748;42.632;23.198;2024-02-23T00:01:59;18.88;;;5.93;;
34505;SDS011;20748;42.632;23.198;2024-02-23T00:04:34;12.82;;;5.55;;
34505;SDS011;20748;42.632;23.198;2024-02-23T00:07:08;16.17;;;6.15;;
34505;SDS011;20748;42.632;23.198;2024-02-23T00:09:41;14.82;;;7.18;;
34505;SDS011;20748;42.632;23.198;2024-02-23T00:12:15;12.60;;;6.05;;
34505;SDS011;20748;42.632;23.198;2024-02-23T00:14:49;11.50;;;5.80;;
34505;SDS011;20748;42.632;23.198;2024-02-23T00:17:23;10.15;;;5.47;;
34505;SDS011;20748;42.632;23.198;2024-02-23T00:19:58;14.18;;;6.25;;
34505;SDS011;20748;42.632;23.198;2024-02-23T00:22:32;16.35;;;6.13;;
34505;SDS011;20748;42.632;23.198;2024-02-23T00:25:06;15.25;;;5.82;;
34505;SDS011;20748;42.632;23.198;2024-02-23T00:27:40;7.18;;;4.00;;
34505;SDS011;20748;42.632;23.198;2024-02-23T00:30:14;11.73;;;6.13;;
34505;SDS011;20748;42.632;23.198;2024-02-23T00:32:48;12.93;;;5.47;;
34505;SDS011;20748;42.632;23.198;2024-02-23T00:35:23;9.30;;;5.13;;
34505;SDS011;20748;42.632;23.198;2024-02-23T00:37:56;12.68;;;6.00;;
34505;SDS011;20748;42.632;23.198;2024-02-23T00:40:30;13.70;;;5.88;;
34505;SDS011;20748;42.632;23.198;2024-02-23T00:43:04;8.88;;;4.32;;
34505;SDS011;20748;42.632;23.198;2024-02-23T00:45:38;12.10;;;5.32;;
34505;SDS011;20748;42.632;23.198;2024-02-23T00:48:11;7.57;;;4.38;;
34505;SDS011;20748;42.632;23.198;2024-02-23T00:50:47;13.68;;;5.55;;
34505;SDS011;20748;42.632;23.198;2024-02-23T00:53:21;11.23;;;5.32;;
34505;SDS011;20748;42.632;23.198;2024-02-23T00:55:54;9.60;;;4.13;;
34505;SDS011;20748;42.632;23.198;2024-02-23T00:58:28;9.38;;;4.65;;
34505;SDS011;20748;42.632;23.198;2024-02-23T01:01:01;11.07;;;5.43;;
34505;SDS011;20748;42.632;23.198;2024-02-23T01:03:35;12.60;;;4.68;;
34505;SDS011;20748;42.632;23.198;2024-02-23T01:06:11;13.90;;;6.07;;
34505;SDS011;20748;42.632;23.198;2024-02-23T01:08:44;10.98;;;5.15;;
34505;SDS011;20748;42.632;23.198;2024-02-23T01:11:18;9.43;;;4.60;;
34505;SDS011;20748;42.632;23.198;2024-02-23T01:13:51;6.85;;;3.40;;
34505;SDS011;20748;42.632;23.198;2024-02-23T01:16:25;8.32;;;4.65;;
34505;SDS011;20748;42.632;23.198;2024-02-23T01:18:59;12.43;;;5.35;;
34505;SDS011;20748;42.632;23.198;2024-02-23T01:21:34;8.85;;;4.43;;
34505;SDS011;20748;42.632;23.198;2024-02-23T01:24:07;8.57;;;4.28;;
34505;SDS011;20748;42.632;23.198;2024-02-23T01:26:41;7.32;;;4.20;;
34505;SDS011;20748;42.632;23.198;2024-02-23T01:29:15;10.07;;;4.53;;
34505;SDS011;20748;42.632;23.198;2024-02-23T01:31:49;10.52;;;5.07;;
34505;SDS011;20748;42.632;23.198;2024-02-23T01:34:23;8.80;;;4.00;;
34505;SDS011;20748;42.632;23.198;2024-02-23T01:36:58;11.85;;;5.18;;
34505;SDS011;20748;42.632;23.198;2024-02-23T01:39:32;9.98;;;5.10;;
34505;SDS011;20748;42.632;23.198;2024-02-23T01:42:06;12.50;;;5.57;;
34505;SDS011;20748;42.632;23.198;2024-02-23T01:44:41;8.48;;;4.25;;
34505;SDS011;20748;42.632;23.198;2024-02-23T01:47:14;9.73;;;5.50;;
34505;SDS011;20748;42.632;23.198;2024-02-23T01:49:48;11.80;;;5.82;;
34505;SDS011;20748;42.632;23.198;2024-02-23T01:52:28;11.30;;;4.68;;
34505;SDS011;20748;42.632;23.198;2024-02-23T01:55:02;6.97;;;3.88;;
34505;SDS011;20748;42.632;23.198;2024-02-23T01:57:36;11.90;;;5.25;;
34505;SDS011;20748;42.632;23.198;2024-02-23T02:00:21;10.55;;;4.95;;
34505;SDS011;20748;42.632;23.198;2024-02-23T02:02:58;7.72;;;3.97;;
34505;SDS011;20748;42.632;23.198;2024-02-23T02:05:32;8.63;;;4.20;;
34505;SDS011;20748;42.632;23.198;2024-02-23T02:08:09;9.73;;;4.53;;
34505;SDS011;20748;42.632;23.198;2024-02-23T02:10:44;10.18;;;5.00;;
34505;SDS011;20748;42.632;23.198;2024-02-23T02:13:19;8.98;;;4.35;;
34505;SDS011;20748;42.632;23.198;2024-02-23T02:15:53;9.25;;;4.45;;
34505;SDS011;20748;42.632;23.198;2024-02-23T02:18:26;8.98;;;3.80;;
34505;SDS011;20748;42.632;23.198;2024-02-23T02:24:54;8.10;;;3.50;;
34505;SDS011;20748;42.632;23.198;2024-02-23T02:27:27;10.35;;;4.75;;
34505;SDS011;20748;42.632;23.198;2024-02-23T02:30:01;8.75;;;4.00;;
34505;SDS011;20748;42.632;23.198;2024-02-23T02:32:35;12.10;;;5.20;;
34505;SDS011;20748;42.632;23.198;2024-02-23T02:35:10;7.78;;;3.78;;
34505;SDS011;20748;42.632;23.198;2024-02-23T02:37:44;8.43;;;4.50;;
34505;SDS011;20748;42.632;23.198;2024-02-23T02:40:19;9.85;;;4.38;;
34505;SDS011;20748;42.632;23.198;2024-02-23T02:42:53;6.28;;;3.33;;
34505;SDS011;20748;42.632;23.198;2024-02-23T02:45:26;9.40;;;4.13;;
34505;SDS011;20748;42.632;23.198;2024-02-23T02:48:00;9.40;;;4.45;;
34505;SDS011;20748;42.632;23.198;2024-02-23T02:50:34;9.63;;;4.47;;
34505;SDS011;20748;42.632;23.198;2024-02-23T02:53:08;9.05;;;4.90;;
34505;SDS011;20748;42.632;23.198;2024-02-23T02:55:44;8.15;;;4.68;;
34505;SDS011;20748;42.632;23.198;2024-02-23T02:58:18;8.55;;;4.13;;
34505;SDS011;20748;42.632;23.198;2024-02-23T03:00:52;7.68;;;4.25;;
34505;SDS011;20748;42.632;23.198;2024-02-23T03:03:25;8.43;;;4.05;;
34505;SDS011;20748;42.632;23.198;2024-02-23T03:05:59;11.05;;;4.95;;
34505;SDS011;20748;42.632;23.198;2024-02-23T03:08:33;8.98;;;4.68;;
34505;SDS011;20748;42.632;23.198;2024-02-23T03:11:08;8.70;;;3.78;;
34505;SDS011;20748;42.632;23.198;2024-02-23T03:13:42;9.07;;;4.72;;
34505;SDS011;20748;42.632;23.198;2024-02-23T03:16:16;7.70;;;3.65;;
34505;SDS011;20748;42.632;23.198;2024-02-23T03:18:50;13.23;;;5.65;;
34505;SDS011;20748;42.632;23.198;2024-02-23T03:21:23;11.63;;;5.60;;
34505;SDS011;20748;42.632;23.198;2024-02-23T03:23:57;6.90;;;4.22;;
34505;SDS011;20748;42.632;23.198;2024-02-23T03:26:32;7.07;;;3.33;;
34505;SDS011;20748;42.632;23.198;2024-02-23T03:29:05;11.35;;;4.43;;
34505;SDS011;20748;42.632;23.198;2024-02-23T03:31:39;7.93;;;4.05;;
34505;SDS011;20748;42.632;23.198;2024-02-23T03:34:13;8.55;;;4.57;;
34505;SDS011;20748;42.632;23.198;2024-02-23T03:36:46;9.18;;;3.63;;
34505;SDS011;20748;42.632;23.198;2024-02-23T03:39:20;10.38;;;4.03;;
34505;SDS011;20748;42.632;23.198;2024-02-23T03:41:55;9.88;;;2.88;;
34505;SDS011;20748;42.632;23.198;2024-02-23T03:44:29;7.47;;;3.63;;
34505;SDS011;20748;42.632;23.198;2024-02-23T03:47:08;5.32;;;2.90;;
34505;SDS011;20748;42.632;23.198;2024-02-23T03:49:41;6.32;;;3.22;;
34505;SDS011;20748;42.632;23.198;2024-02-23T03:52:15;6.88;;;3.38;;
34505;SDS011;20748;42.632;23.198;2024-02-23T03:54:49;7.95;;;4.40;;
34505;SDS011;20748;42.632;23.198;2024-02-23T03:57:25;9.57;;;3.03;;
34505;SDS011;20748;42.632;23.198;2024-02-23T03:59:59;9.35;;;4.45;;
34505;SDS011;20748;42.632;23.198;2024-02-23T04:02:42;6.22;;;3.22;;
34505;SDS011;20748;42.632;23.198;2024-02-23T04:05:16;12.38;;;3.75;;
34505;SDS011;20748;42.632;23.198;2024-02-23T04:07:51;9.18;;;4.18;;
34505;SDS011;20748;42.632;23.198;2024-02-23T04:10:24;18.58;;;10.18;;
34505;SDS011;20748;42.632;23.198;2024-02-23T04:13:00;8.18;;;3.38;;
34505;SDS011;20748;42.632;23.198;2024-02-23T04:15:33;8.27;;;3.90;;
34505;SDS011;20748;42.632;23.198;2024-02-23T04:18:08;8.70;;;3.58;;
34505;SDS011;20748;42.632;23.198;2024-02-23T04:20:41;7.15;;;2.72;;
34505;SDS011;20748;42.632;23.198;2024-02-23T04:23:15;9.18;;;4.60;;
34505;SDS011;20748;42.632;23.198;2024-02-23T04:25:49;6.05;;;3.20;;
34505;SDS011;20748;42.632;23.198;2024-02-23T04:28:25;7.75;;;3.80;;
34505;SDS011;20748;42.632;23.198;2024-02-23T04:31:03;9.40;;;4.37;;
34505;SDS011;20748;42.632;23.198;2024-02-23T04:33:37;9.20;;;3.63;;
34505;SDS011;20748;42.632;23.198;2024-02-23T04:36:11;7.68;;;3.60;;
34505;SDS011;20748;42.632;23.198;2024-02-23T04:38:45;7.18;;;3.00;;
34505;SDS011;20748;42.632;23.198;2024-02-23T04:41:19;7.95;;;3.47;;
34505;SDS011;20748;42.632;23.198;2024-02-23T04:43:54;6.72;;;3.80;;
34505;SDS011;20748;42.632;23.198;2024-02-23T04:46:34;9.38;;;3.67;;
34505;SDS011;20748;42.632;23.198;2024-02-23T04:49:08;7.93;;;3.38;;
34505;SDS011;20748;42.632;23.198;2024-02-23T04:51:44;6.97;;;2.75;;
34505;SDS011;20748;42.632;23.198;2024-02-23T04:54:17;4.90;;;2.58;;
34505;SDS011;20748;42.632;23.198;2024-02-23T04:56:51;9.77;;;4.30;;
34505;SDS011;20748;42.632;23.198;2024-02-23T04:59:26;8.68;;;3.75;;
34505;SDS011;20748;42.632;23.198;2024-02-23T05:02:01;6.43;;;3.13;;
34505;SDS011;20748;42.632;23.198;2024-02-23T05:04:34;6.22;;;3.00;;
34505;SDS011;20748;42.632;23.198;2024-02-23T05:07:08;6.75;;;3.45;;
34505;SDS011;20748;42.632;23.198;2024-02-23T05:09:42;9.55;;;3.90;;
34505;SDS011;20748;42.632;23.198;2024-02-23T05:12:15;10.05;;;3.35;;
34505;SDS011;20748;42.632;23.198;2024-02-23T05:14:50;7.18;;;3.38;;
34505;SDS011;20748;42.632;23.198;2024-02-23T05:17:24;9.80;;;4.15;;
34505;SDS011;20748;42.632;23.198;2024-02-23T05:19:58;8.85;;;4.22;;
34505;SDS011;20748;42.632;23.198;2024-02-23T05:22:32;5.13;;;2.60;;
34505;SDS011;20748;42.632;23.198;2024-02-23T05:25:06;8.95;;;5.32;;
34505;SDS011;20748;42.632;23.198;2024-02-23T05:27:40;5.25;;;2.92;;
34505;SDS011;20748;42.632;23.198;2024-02-23T05:30:15;7.45;;;2.90;;
34505;SDS011;20748;42.632;23.198;2024-02-23T05:32:49;6.85;;;3.03;;
34505;SDS011;20748;42.632;23.198;2024-02-23T05:35:23;7.45;;;3.45;;
34505;SDS011;20748;42.632;23.198;2024-02-23T05:37:58;6.50;;;2.63;;
34505;SDS011;20748;42.632;23.198;2024-02-23T05:40:32;9.40;;;4.03;;
34505;SDS011;20748;42.632;23.198;2024-02-23T05:43:06;5.72;;;2.70;;
34505;SDS011;20748;42.632;23.198;2024-02-23T05:45:41;6.32;;;2.58;;
34505;SDS011;20748;42.632;23.198;2024-02-23T05:48:16;13.90;;;4.70;;
34505;SDS011;20748;42.632;23.198;2024-02-23T05:50:51;8.52;;;3.70;;
34505;SDS011;20748;42.632;23.198;2024-02-23T05:53:24;7.28;;;3.53;;
34505;SDS011;20748;42.632;23.198;2024-02-23T05:55:58;6.10;;;2.67;;
34505;SDS011;20748;42.632;23.198;2024-02-23T05:58:32;6.20;;;2.92;;
34505;SDS011;20748;42.632;23.198;2024-02-23T06:01:07;7.03;;;2.65;;
34505;SDS011;20748;42.632;23.198;2024-02-23T06:03:40;7.53;;;3.20;;
34505;SDS011;20748;42.632;23.198;2024-02-23T06:06:14;10.18;;;4.03;;
34505;SDS011;20748;42.632;23.198;2024-02-23T06:08:48;7.00;;;3.95;;
34505;SDS011;20748;42.632;23.198;2024-02-23T06:11:23;11.50;;;4.20;;
34505;SDS011;20748;42.632;23.198;2024-02-23T06:13:56;7.15;;;2.95;;
34505;SDS011;20748;42.632;23.198;2024-02-23T06:16:31;7.45;;;3.17;;
34505;SDS011;20748;42.632;23.198;2024-02-23T06:19:05;6.80;;;2.95;;
34505;SDS011;20748;42.632;23.198;2024-02-23T06:21:39;7.70;;;3.55;;
34505;SDS011;20748;42.632;23.198;2024-02-23T06:24:12;7.03;;;3.00;;
34505;SDS011;20748;42.632;23.198;2024-02-23T06:26:46;5.78;;;2.67;;
34505;SDS011;20748;42.632;23.198;2024-02-23T06:29:21;6.00;;;3.58;;
34505;SDS011;20748;42.632;23.198;2024-02-23T06:31:56;4.60;;;2.30;;
34505;SDS011;20748;42.632;23.198;2024-02-23T06:34:30;5.80;;;2.63;;
34505;SDS011;20748;42.632;23.198;2024-02-23T06:37:04;4.80;;;2.80;;
34505;SDS011;20748;42.632;23.198;2024-02-23T06:39:37;8.13;;;3.15;;
34505;SDS011;20748;42.632;23.198;2024-02-23T06:42:11;6.57;;;3.38;;
34505;SDS011;20748;42.632;23.198;2024-02-23T06:44:45;11.30;;;4.05;;
34505;SDS011;20748;42.632;23.198;2024-02-23T06:47:20;6.43;;;3.25;;
34505;SDS011;20748;42.632;23.198;2024-02-23T06:49:54;5.63;;;2.75;;
34505;SDS011;20748;42.632;23.198;2024-02-23T06:52:28;6.32;;;2.65;;
34505;SDS011;20748;42.632;23.198;2024-02-23T06:55:01;5.40;;;2.17;;
34505;SDS011;20748;42.632;23.198;2024-02-23T06:57:35;6.28;;;3.17;;
34505;SDS011;20748;42.632;23.198;2024-02-23T07:00:09;5.55;;;2.88;;
34505;SDS011;20748;42.632;23.198;2024-02-23T07:02:45;4.70;;;2.30;;
34505;SDS011;20748;42.632;23.198;2024-02-23T07:05:18;5.90;;;3.28;;
34505;SDS011;20748;42.632;23.198;2024-02-23T07:07:52;6.75;;;3.65;;
34505;SDS011;20748;42.632;23.198;2024-02-23T07:10:44;7.82;;;3.03;;
34505;SDS011;20748;42.632;23.198;2024-02-23T07:13:18;5.25;;;2.53;;
34505;SDS011;20748;42.632;23.198;2024-02-23T07:15:52;4.45;;;2.47;;
34505;SDS011;20748;42.632;23.198;2024-02-23T07:18:29;5.32;;;2.85;;
34505;SDS011;20748;42.632;23.198;2024-02-23T07:21:03;5.75;;;2.72;;
34505;SDS011;20748;42.632;23.198;2024-02-23T07:23:37;6.53;;;2.78;;
34505;SDS011;20748;42.632;23.198;2024-02-23T07:26:11;6.18;;;2.65;;
34505;SDS011;20748;42.632;23.198;2024-02-23T07:28:45;4.20;;;2.30;;
34505;SDS011;20748;42.632;23.198;2024-02-23T07:31:18;5.35;;;2.88;;
34505;SDS011;20748;42.632;23.198;2024-02-23T07:33:53;6.97;;;2.53;;
34505;SDS011;20748;42.632;23.198;2024-02-23T07:36:27;4.90;;;2.03;;
34505;SDS011;20748;42.632;23.198;2024-02-23T07:39:01;5.60;;;2.55;;
34505;SDS011;20748;42.632;23.198;2024-02-23T07:41:35;7.03;;;2.35;;
34505;SDS011;20748;42.632;23.198;2024-02-23T07:44:09;3.17;;;1.67;;
34505;SDS011;20748;42.632;23.198;2024-02-23T07:46:43;3.53;;;2.20;;
34505;SDS011;20748;42.632;23.198;2024-02-23T07:49:18;5.05;;;2.60;;
34505;SDS011;20748;42.632;23.198;2024-02-23T07:51:52;8.48;;;2.67;;
34505;SDS011;20748;42.632;23.198;2024-02-23T07:54:26;5.70;;;2.63;;
34505;SDS011;20748;42.632;23.198;2024-02-23T07:56:59;3.70;;;2.15;;
34505;SDS011;20748;42.632;23.198;2024-02-23T07:59:33;5.80;;;2.28;;
34505;SDS011;20748;42.632;23.198;2024-02-23T08:02:07;5.82;;;1.65;;
34505;SDS011;20748;42.632;23.198;2024-02-23T08:04:42;3.20;;;1.80;;
34505;SDS011;20748;42.632;23.198;2024-02-23T08:07:16;4.63;;;1.90;;
34505;SDS011;20748;42.632;23.198;2024-02-23T08:09:50;4.68;;;2.50;;
34505;SDS011;20748;42.632;23.198;2024-02-23T08:12:23;5.63;;;2.03;;
34505;SDS011;20748;42.632;23.198;2024-02-23T08:15:15;3.33;;;2.30;;
34505;SDS011;20748;42.632;23.198;2024-02-23T08:18:07;5.25;;;2.15;;
34505;SDS011;20748;42.632;23.198;2024-02-23T08:21:02;4.07;;;2.03;;
34505;SDS011;20748;42.632;23.198;2024-02-23T08:23:38;6.60;;;2.83;;
34505;SDS011;20748;42.632;23.198;2024-02-23T08:26:11;4.65;;;2.08;;
34505;SDS011;20748;42.632;23.198;2024-02-23T08:28:45;4.80;;;2.47;;
34505;SDS011;20748;42.632;23.198;2024-02-23T08:31:19;8.82;;;2.80;;
34505;SDS011;20748;42.632;23.198;2024-02-23T08:33:52;6.38;;;3.03;;
34505;SDS011;20748;42.632;23.198;2024-02-23T08:36:27;5.65;;;2.58;;
34505;SDS011;20748;42.632;23.198;2024-02-23T08:39:01;9.90;;;4.43;;
34505;SDS011;20748;42.632;23.198;2024-02-23T08:41:35;4.10;;;1.90;;
34505;SDS011;20748;42.632;23.198;2024-02-23T08:44:09;4.05;;;2.17;;
34505;SDS011;20748;42.632;23.198;2024-02-23T08:46:42;5.55;;;2.10;;
34505;SDS011;20748;42.632;23.198;2024-02-23T08:49:16;5.65;;;3.13;;
34505;SDS011;20748;42.632;23.198;2024-02-23T08:51:51;4.43;;;2.10;;
34505;SDS011;20748;42.632;23.198;2024-02-23T08:54:25;7.03;;;3.03;;
34505;SDS011;20748;42.632;23.198;2024-02-23T08:56:58;2.92;;;1.85;;
34505;SDS011;20748;42.632;23.198;2024-02-23T08:59:32;4.50;;;2.28;;
34505;SDS011;20748;42.632;23.198;2024-02-23T09:02:05;6.45;;;3.05;;
34505;SDS011;20748;42.632;23.198;2024-02-23T09:04:39;4.10;;;1.70;;
34505;SDS011;20748;42.632;23.198;2024-02-23T09:07:14;5.72;;;2.65;;
34505;SDS011;20748;42.632;23.198;2024-02-23T09:09:48;5.40;;;2.40;;
34505;SDS011;20748;42.632;23.198;2024-02-23T09:12:22;2.33;;;1.63;;
34505;SDS011;20748;42.632;23.198;2024-02-23T09:14:56;2.95;;;1.45;;
34505;SDS011;20748;42.632;23.198;2024-02-23T09:17:30;3.80;;;2.03;;
34505;SDS011;20748;42.632;23.198;2024-02-23T09:20:04;3.65;;;1.50;;
34505;SDS011;20748;42.632;23.198;2024-02-23T09:22:40;6.90;;;1.27;;
34505;SDS011;20748;42.632;23.198;2024-02-23T09:25:14;4.93;;;1.85;;
34505;SDS011;20748;42.632;23.198;2024-02-23T09:27:48;4.82;;;2.20;;
34505;SDS011;20748;42.632;23.198;2024-02-23T09:30:21;3.88;;;1.60;;
34505;SDS011;20748;42.632;23.198;2024-02-23T09:32:55;3.35;;;1.75;;
34505;SDS011;20748;42.632;23.198;2024-02-23T09:35:29;3.85;;;1.25;;
34505;SDS011;20748;42.632;23.198;2024-02-23T09:38:04;2.70;;;1.17;;
34505;SDS011;20748;42.632;23.198;2024-02-23T09:40:38;2.75;;;1.50;;
34505;SDS011;20748;42.632;23.198;2024-02-23T09:43:12;2.50;;;1.23;;
34505;SDS011;20748;42.632;23.198;2024-02-23T09:45:48;4.88;;;1.63;;
34505;SDS011;20748;42.632;23.198;2024-02-23T09:48:24;3.08;;;1.52;;
34505;SDS011;20748;42.632;23.198;2024-02-23T09:50:58;2.90;;;1.48;;
34505;SDS011;20748;42.632;23.198;2024-02-23T09:53:34;2.50;;;1.15;;
34505;SDS011;20748;42.632;23.198;2024-02-23T09:56:10;6.95;;;1.95;;
34505;SDS011;20748;42.632;23.198;2024-02-23T09:58:49;3.33;;;1.60;;
34505;SDS011;20748;42.632;23.198;2024-02-23T10:01:25;3.53;;;1.75;;
34505;SDS011;20748;42.632;23.198;2024-02-23T10:04:01;3.67;;;1.50;;
34505;SDS011;20748;42.632;23.198;2024-02-23T10:06:37;2.53;;;1.45;;
34505;SDS011;20748;42.632;23.198;2024-02-23T10:09:12;2.40;;;1.10;;
34505;SDS011;20748;42.632;23.198;2024-02-23T10:11:51;3.50;;;1.50;;
34505;SDS011;20748;42.632;23.198;2024-02-23T10:14:25;2.63;;;1.13;;
34505;SDS011;20748;42.632;23.198;2024-02-23T10:16:59;3.92;;;1.45;;
34505;SDS011;20748;42.632;23.198;2024-02-23T10:19:34;1.83;;;1.17;;
34505;SDS011;20748;42.632;23.198;2024-02-23T10:22:08;3.92;;;2.15;;
34505;SDS011;20748;42.632;23.198;2024-02-23T10:24:43;4.15;;;1.85;;
34505;SDS011;20748;42.632;23.198;2024-02-23T10:27:17;3.40;;;2.00;;
34505;SDS011;20748;42.632;23.198;2024-02-23T10:29:51;2.55;;;1.35;;
34505;SDS011;20748;42.632;23.198;2024-02-23T10:32:25;4.93;;;1.65;;
34505;SDS011;20748;42.632;23.198;2024-02-23T10:35:03;3.35;;;1.92;;
34505;SDS011;20748;42.632;23.198;2024-02-23T10:37:41;2.35;;;1.27;;
34505;SDS011;20748;42.632;23.198;2024-02-23T10:40:17;3.58;;;1.70;;
34505;SDS011;20748;42.632;23.198;2024-02-23T10:42:52;2.15;;;1.42;;
34505;SDS011;20748;42.632;23.198;2024-02-23T10:45:29;2.92;;;1.90;;
34505;SDS011;20748;42.632;23.198;2024-02-23T10:48:04;4.03;;;2.17;;
34505;SDS011;20748;42.632;23.198;2024-02-23T10:50:39;2.20;;;1.20;;
34505;SDS011;20748;42.632;23.198;2024-02-23T10:53:16;3.50;;;2.08;;
34505;SDS011;20748;42.632;23.198;2024-02-23T10:55:56;6.07;;;1.70;;
34505;SDS011;20748;42.632;23.198;2024-02-23T10:58:30;2.42;;;1.27;;
34505;SDS011;20748;42.632;23.198;2024-02-23T11:01:05;6.53;;;1.58;;
34505;SDS011;20748;42.632;23.198;2024-02-23T11:03:42;2.67;;;1.58;;
34505;SDS011;20748;42.632;23.198;2024-02-23T11:06:20;3.10;;;1.27;;
34505;SDS011;20748;42.632;23.198;2024-02-23T11:09:06;8.73;;;3.28;;
34505;SDS011;20748;42.632;23.198;2024-02-23T11:11:51;3.17;;;1.60;;
34505;SDS011;20748;42.632;23.198;2024-02-23T11:14:30;4.75;;;1.48;;
34505;SDS011;20748;42.632;23.198;2024-02-23T11:17:05;10.75;;;4.15;;
34505;SDS011;20748;42.632;23.198;2024-02-23T11:19:39;9.93;;;4.22;;
34505;SDS011;20748;42.632;23.198;2024-02-23T11:22:13;14.48;;;5.90;;
34505;SDS011;20748;42.632;23.198;2024-02-23T11:24:59;3.33;;;1.80;;
34505;SDS011;20748;42.632;23.198;2024-02-23T11:27:36;6.65;;;2.42;;
34505;SDS011;20748;42.632;23.198;2024-02-23T11:30:12;2.58;;;1.15;;
34505;SDS011;20748;42.632;23.198;2024-02-23T11:32:51;7.05;;;2.60;;
34505;SDS011;20748;42.632;23.198;2024-02-23T11:35:32;3.47;;;1.70;;
34505;SDS011;20748;42.632;23.198;2024-02-23T11:38:06;4.93;;;1.90;;
34505;SDS011;20748;42.632;23.198;2024-02-23T11:40:41;3.72;;;1.45;;
34505;SDS011;20748;42.632;23.198;2024-02-23T11:43:16;2.53;;;1.48;;
34505;SDS011;20748;42.632;23.198;2024-02-23T11:45:51;4.22;;;2.25;;
34505;SDS011;20748;42.632;23.198;2024-02-23T11:48:24;6.10;;;1.25;;
34505;SDS011;20748;42.632;23.198;2024-02-23T11:50:58;3.25;;;1.65;;
34505;SDS011;20748;42.632;23.198;2024-02-23T11:53:32;2.20;;;1.23;;
34505;SDS011;20748;42.632;23.198;2024-02-23T11:56:06;3.17;;;1.77;;
34505;SDS011;20748;42.632;23.198;2024-02-23T11:58:41;2.90;;;1.30;;
34505;SDS011;20748;42.632;23.198;2024-02-23T12:01:15;2.50;;;1.58;;
34505;SDS011;20748;42.632;23.198;2024-02-23T12:03:49;1.80;;;1.38;;
34505;SDS011;20748;42.632;23.198;2024-02-23T12:06:23;5.20;;;1.85;;
34505;SDS011;20748;42.632;23.198;2024-02-23T12:08:56;2.42;;;1.23;;
34505;SDS011;20748;42.632;23.198;2024-02-23T12:11:30;2.72;;;1.20;;
34505;SDS011;20748;42.632;23.198;2024-02-23T12:14:05;2.13;;;1.40;;
34505;SDS011;20748;42.632;23.198;2024-02-23T12:16:40;1.95;;;1.05;;
34505;SDS011;20748;42.632;23.198;2024-02-23T12:19:14;2.00;;;1.08;;
34505;SDS011;20748;42.632;23.198;2024-02-23T12:21:48;2.38;;;1.35;;
34505;SDS011;20748;42.632;23.198;2024-02-23T12:24:22;1.27;;;0.85;;
34505;SDS011;20748;42.632;23.198;2024-02-23T12:26:58;1.30;;;0.70;;
34505;SDS011;20748;42.632;23.198;2024-02-23T12:29:33;2.97;;;1.50;;
34505;SDS011;20748;42.632;23.198;2024-02-23T12:32:07;2.58;;;1.60;;
34505;SDS011;20748;42.632;23.198;2024-02-23T12:34:43;2.55;;;1.23;;
34505;SDS011;20748;42.632;23.198;2024-02-23T12:37:17;1.70;;;1.08;;
34505;SDS011;20748;42.632;23.198;2024-02-23T12:39:51;2.85;;;1.23;;
34505;SDS011;20748;42.632;23.198;2024-02-23T12:42:25;2.63;;;1.15;;
34505;SDS011;20748;42.632;23.198;2024-02-23T12:45:00;2.63;;;1.35;;
34505;SDS011;20748;42.632;23.198;2024-02-23T12:47:34;2.13;;;1.27;;
34505;SDS011;20748;42.632;23.198;2024-02-23T12:50:08;1.67;;;1.00;;
34505;SDS011;20748;42.632;23.198;2024-02-23T12:52:42;6.25;;;1.27;;
34505;SDS011;20748;42.632;23.198;2024-02-23T12:55:16;2.90;;;1.45;;
34505;SDS011;20748;42.632;23.198;2024-02-23T12:57:49;1.55;;;1.17;;
34505;SDS011;20748;42.632;23.198;2024-02-23T13:00:24;1.52;;;0.93;;
34505;SDS011;20748;42.632;23.198;2024-02-23T13:02:58;1.70;;;0.98;;
34505;SDS011;20748;42.632;23.198;2024-02-23T13:05:32;2.33;;;1.27;;
34505;SDS011;20748;42.632;23.198;2024-02-23T13:08:06;3.53;;;1.05;;
34505;SDS011;20748;42.632;23.198;2024-02-23T13:10:40;3.15;;;1.73;;
34505;SDS011;20748;42.632;23.198;2024-02-23T13:13:14;3.50;;;1.95;;
34505;SDS011;20748;42.632;23.198;2024-02-23T13:15:50;3.58;;;1.40;;
34505;SDS011;20748;42.632;23.198;2024-02-23T13:18:24;2.50;;;1.27;;
34505;SDS011;20748;42.632;23.198;2024-02-23T13:20:58;3.40;;;1.80;;
34505;SDS011;20748;42.632;23.198;2024-02-23T13:23:32;2.38;;;1.48;;
34505;SDS011;20748;42.632;23.198;2024-02-23T13:26:05;3.70;;;1.08;;
34505;SDS011;20748;42.632;23.198;2024-02-23T13:28:42;2.97;;;1.60;;
34505;SDS011;20748;42.632;23.198;2024-02-23T13:31:17;6.18;;;2.38;;
34505;SDS011;20748;42.632;23.198;2024-02-23T13:33:51;3.03;;;1.42;;
34505;SDS011;20748;42.632;23.198;2024-02-23T13:36:25;2.72;;;1.23;;
34505;SDS011;20748;42.632;23.198;2024-02-23T13:38:58;2.72;;;1.35;;
34505;SDS011;20748;42.632;23.198;2024-02-23T13:41:32;5.05;;;1.48;;
34505;SDS011;20748;42.632;23.198;2024-02-23T13:44:07;4.25;;;1.42;;
34505;SDS011;20748;42.632;23.198;2024-02-23T13:46:42;3.00;;;1.40;;
34505;SDS011;20748;42.632;23.198;2024-02-23T13:49:15;4.45;;;1.63;;
34505;SDS011;20748;42.632;23.198;2024-02-23T13:51:49;3.50;;;2.35;;
34505;SDS011;20748;42.632;23.198;2024-02-23T13:54:23;3.22;;;1.42;;
34505;SDS011;20748;42.632;23.198;2024-02-23T13:56:56;3.20;;;1.67;;
34505;SDS011;20748;42.632;23.198;2024-02-23T13:59:30;2.33;;;1.52;;
34505;SDS011;20748;42.632;23.198;2024-02-23T14:02:05;4.57;;;2.13;;
34505;SDS011;20748;42.632;23.198;2024-02-23T14:04:39;2.22;;;1.27;;
34505;SDS011;20748;42.632;23.198;2024-02-23T14:07:12;2.95;;;2.10;;
34505;SDS011;20748;42.632;23.198;2024-02-23T14:09:46;3.42;;;1.38;;
34505;SDS011;20748;42.632;23.198;2024-02-23T14:12:20;4.55;;;1.50;;
34505;SDS011;20748;42.632;23.198;2024-02-23T14:14:53;3.30;;;1.83;;
34505;SDS011;20748;42.632;23.198;2024-02-23T14:17:28;3.03;;;1.38;;
34505;SDS011;20748;42.632;23.198;2024-02-23T14:20:02;4.00;;;1.67;;
34505;SDS011;20748;42.632;23.198;2024-02-23T14:22:36;4.53;;;1.92;;
34505;SDS011;20748;42.632;23.198;2024-02-23T14:25:10;3.70;;;2.08;;
34505;SDS011;20748;42.632;23.198;2024-02-23T14:27:44;4.57;;;2.13;;
34505;SDS011;20748;42.632;23.198;2024-02-23T14:30:18;2.72;;;1.50;;
34505;SDS011;20748;42.632;23.198;2024-02-23T14:32:53;10.38;;;2.25;;
34505;SDS011;20748;42.632;23.198;2024-02-23T14:35:26;3.05;;;1.80;;
34505;SDS011;20748;42.632;23.198;2024-02-23T14:38:00;3.33;;;1.58;;
34505;SDS011;20748;42.632;23.198;2024-02-23T14:40:34;5.13;;;2.70;;
34505;SDS011;20748;42.632;23.198;2024-02-23T14:43:09;4.38;;;2.20;;
34505;SDS011;20748;42.632;23.198;2024-02-23T14:45:43;5.45;;;2.05;;
34505;SDS011;20748;42.632;23.198;2024-02-23T14:48:18;2.60;;;1.75;;
34505;SDS011;20748;42.632;23.198;2024-02-23T14:50:52;4.80;;;1.80;;
34505;SDS011;20748;42.632;23.198;2024-02-23T14:53:26;7.07;;;3.17;;
34505;SDS011;20748;42.632;23.198;2024-02-23T14:56:00;5.45;;;3.28;;
34505;SDS011;20748;42.632;23.198;2024-02-23T14:58:34;6.05;;;3.55;;
34505;SDS011;20748;42.632;23.198;2024-02-23T15:01:08;3.75;;;2.10;;
34505;SDS011;20748;42.632;23.198;2024-02-23T15:03:43;3.58;;;2.22;;
34505;SDS011;20748;42.632;23.198;2024-02-23T15:06:17;3.35;;;1.70;;
34505;SDS011;20748;42.632;23.198;2024-02-23T15:08:51;3.90;;;2.25;;
34505;SDS011;20748;42.632;23.198;2024-02-23T15:11:25;3.92;;;2.05;;
34505;SDS011;20748;42.632;23.198;2024-02-23T15:13:58;3.97;;;2.35;;
34505;SDS011;20748;42.632;23.198;2024-02-23T15:16:33;3.08;;;2.25;;
34505;SDS011;20748;42.632;23.198;2024-02-23T15:19:10;3.72;;;2.30;;
34505;SDS011;20748;42.632;23.198;2024-02-23T15:21:43;5.63;;;2.47;;